sensor_id;sensor_type;location;lat;lon;timestamp;temperature;humidity
24468;DHT22;12634;50.852;5.676;2024-03-08T00:00:09;4.30;99.90
24468;DHT22;12634;50.852;5.676;2024-03-08T00:02:38;4.40;99.90
24468;DHT22;12634;50.852;5.676;2024-03-08T00:05:06;4.40;99.90
24468;DHT22;12634;50.852;5.676;2024-03-08T00:07:34;4.20;99.90
24468;DHT22;12634;50.852;5.676;2024-03-08T00:10:02;4.40;99.90
24468;DHT22;12634;50.852;5.676;2024-03-08T00:12:31;4.20;99.90
24468;DHT22;12634;50.852;5.676;2024-03-08T00:14:58;4.20;99.90
24468;DHT22;12634;50.852;5.676;2024-03-08T00:17:25;4.20;99.90
24468;DHT22;12634;50.852;5.676;2024-03-08T00:19:53;4.00;99.90
24468;DHT22;12634;50.852;5.676;2024-03-08T00:22:20;4.30;99.90
24468;DHT22;12634;50.852;5.676;2024-03-08T00:24:48;4.30;99.90
24468;DHT22;12634;50.852;5.676;2024-03-08T00:27:16;4.40;99.90
24468;DHT22;12634;50.852;5.676;2024-03-08T00:29:49;4.20;99.90
24468;DHT22;12634;50.852;5.676;2024-03-08T00:32:16;4.30;99.90
24468;DHT22;12634;50.852;5.676;2024-03-08T00:34:43;4.20;99.90
24468;DHT22;12634;50.852;5.676;2024-03-08T00:37:11;4.00;99.90
24468;DHT22;12634;50.852;5.676;2024-03-08T00:39:38;3.80;99.90
24468;DHT22;12634;50.852;5.676;2024-03-08T00:42:05;3.90;99.90
24468;DHT22;12634;50.852;5.676;2024-03-08T00:44:32;3.70;99.90
24468;DHT22;12634;50.852;5.676;2024-03-08T00:47:00;3.70;99.90
24468;DHT22;12634;50.852;5.676;2024-03-08T00:49:29;3.80;99.90
24468;DHT22;12634;50.852;5.676;2024-03-08T00:51:56;3.60;99.90
24468;DHT22;12634;50.852;5.676;2024-03-08T00:54:23;3.50;99.90
24468;DHT22;12634;50.852;5.676;2024-03-08T00:56:50;3.50;99.90
24468;DHT22;12634;50.852;5.676;2024-03-08T00:59:17;3.80;99.90
24468;DHT22;12634;50.852;5.676;2024-03-08T01:01:44;3.50;99.90
24468;DHT22;12634;50.852;5.676;2024-03-08T01:04:13;3.50;99.90
24468;DHT22;12634;50.852;5.676;2024-03-08T01:06:40;3.50;99.90
24468;DHT22;12634;50.852;5.676;2024-03-08T01:09:08;3.60;99.90
24468;DHT22;12634;50.852;5.676;2024-03-08T01:11:35;3.80;99.90
24468;DHT22;12634;50.852;5.676;2024-03-08T01:14:03;3.60;99.90
24468;DHT22;12634;50.852;5.676;2024-03-08T01:16:30;3.70;99.90
24468;DHT22;12634;50.852;5.676;2024-03-08T01:18:59;3.60;99.90
24468;DHT22;12634;50.852;5.676;2024-03-08T01:21:27;3.30;99.90
24468;DHT22;12634;50.852;5.676;2024-03-08T01:23:54;3.60;99.90
24468;DHT22;12634;50.852;5.676;2024-03-08T01:26:22;3.50;99.90
24468;DHT22;12634;50.852;5.676;2024-03-08T01:28:50;3.70;99.90
24468;DHT22;12634;50.852;5.676;2024-03-08T01:31:17;3.60;99.90
24468;DHT22;12634;50.852;5.676;2024-03-08T01:33:44;3.70;99.90
24468;DHT22;12634;50.852;5.676;2024-03-08T01:36:11;3.40;99.90
24468;DHT22;12634;50.852;5.676;2024-03-08T01:38:42;3.40;99.90
24468;DHT22;12634;50.852;5.676;2024-03-08T01:41:09;3.60;99.90
24468;DHT22;12634;50.852;5.676;2024-03-08T01:43:39;3.40;99.90
24468;DHT22;12634;50.852;5.676;2024-03-08T01:46:07;3.70;99.90
24468;DHT22;12634;50.852;5.676;2024-03-08T01:48:36;3.40;99.90
24468;DHT22;12634;50.852;5.676;2024-03-08T01:51:04;3.40;99.90
24468;DHT22;12634;50.852;5.676;2024-03-08T01:53:32;3.40;99.90
24468;DHT22;12634;50.852;5.676;2024-03-08T01:56:02;3.30;99.90
24468;DHT22;12634;50.852;5.676;2024-03-08T01:58:30;3.30;99.90
24468;DHT22;12634;50.852;5.676;2024-03-08T02:00:59;3.40;99.90
24468;DHT22;12634;50.852;5.676;2024-03-08T02:03:30;3.40;99.90
24468;DHT22;12634;50.852;5.676;2024-03-08T02:05:58;3.50;99.90
24468;DHT22;12634;50.852;5.676;2024-03-08T02:08:25;3.30;99.90
24468;DHT22;12634;50.852;5.676;2024-03-08T02:10:53;3.40;99.90
24468;DHT22;12634;50.852;5.676;2024-03-08T02:13:22;3.30;99.90
24468;DHT22;12634;50.852;5.676;2024-03-08T02:15:53;3.20;99.90
24468;DHT22;12634;50.852;5.676;2024-03-08T02:18:21;3.30;99.90
24468;DHT22;12634;50.852;5.676;2024-03-08T02:20:51;3.30;99.90
24468;DHT22;12634;50.852;5.676;2024-03-08T02:23:18;3.20;99.90
24468;DHT22;12634;50.852;5.676;2024-03-08T02:25:45;3.20;99.90
24468;DHT22;12634;50.852;5.676;2024-03-08T02:28:13;3.10;99.90
24468;DHT22;12634;50.852;5.676;2024-03-08T02:30:41;3.10;99.90
24468;DHT22;12634;50.852;5.676;2024-03-08T02:33:08;3.20;99.90
24468;DHT22;12634;50.852;5.676;2024-03-08T02:35:36;3.10;99.90
24468;DHT22;12634;50.852;5.676;2024-03-08T02:38:04;3.10;99.90
24468;DHT22;12634;50.852;5.676;2024-03-08T02:40:32;3.30;99.90
24468;DHT22;12634;50.852;5.676;2024-03-08T02:42:59;3.20;99.90
24468;DHT22;12634;50.852;5.676;2024-03-08T02:45:26;3.20;99.90
24468;DHT22;12634;50.852;5.676;2024-03-08T02:47:53;3.20;99.90
24468;DHT22;12634;50.852;5.676;2024-03-08T02:50:21;2.90;99.90
24468;DHT22;12634;50.852;5.676;2024-03-08T02:52:51;3.00;99.90
24468;DHT22;12634;50.852;5.676;2024-03-08T02:55:19;3.10;99.90
24468;DHT22;12634;50.852;5.676;2024-03-08T02:57:47;2.90;99.90
24468;DHT22;12634;50.852;5.676;2024-03-08T03:00:14;3.00;99.90
24468;DHT22;12634;50.852;5.676;2024-03-08T03:02:41;2.90;99.90
24468;DHT22;12634;50.852;5.676;2024-03-08T03:05:09;2.70;99.90
24468;DHT22;12634;50.852;5.676;2024-03-08T03:07:37;2.90;99.90
24468;DHT22;12634;50.852;5.676;2024-03-08T03:10:05;2.80;99.90
24468;DHT22;12634;50.852;5.676;2024-03-08T03:12:35;2.90;99.90
24468;DHT22;12634;50.852;5.676;2024-03-08T03:15:04;3.00;99.90
24468;DHT22;12634;50.852;5.676;2024-03-08T03:17:32;3.00;99.90
24468;DHT22;12634;50.852;5.676;2024-03-08T03:19:59;2.90;99.90
24468;DHT22;12634;50.852;5.676;2024-03-08T03:22:28;2.90;99.90
24468;DHT22;12634;50.852;5.676;2024-03-08T03:24:56;2.80;99.90
24468;DHT22;12634;50.852;5.676;2024-03-08T03:27:24;2.70;99.90
24468;DHT22;12634;50.852;5.676;2024-03-08T03:29:52;2.70;99.90
24468;DHT22;12634;50.852;5.676;2024-03-08T03:32:21;2.70;99.90
24468;DHT22;12634;50.852;5.676;2024-03-08T03:34:49;2.70;99.90
24468;DHT22;12634;50.852;5.676;2024-03-08T03:37:18;2.70;99.90
24468;DHT22;12634;50.852;5.676;2024-03-08T03:39:46;2.80;99.90
24468;DHT22;12634;50.852;5.676;2024-03-08T03:42:15;2.70;99.90
24468;DHT22;12634;50.852;5.676;2024-03-08T03:44:44;2.60;99.90
24468;DHT22;12634;50.852;5.676;2024-03-08T03:47:13;2.70;99.90
24468;DHT22;12634;50.852;5.676;2024-03-08T03:49:41;2.60;99.90
24468;DHT22;12634;50.852;5.676;2024-03-08T03:52:08;2.60;99.90
24468;DHT22;12634;50.852;5.676;2024-03-08T03:54:36;2.60;99.90
24468;DHT22;12634;50.852;5.676;2024-03-08T03:57:03;2.70;99.90
24468;DHT22;12634;50.852;5.676;2024-03-08T03:59:30;2.50;99.90
24468;DHT22;12634;50.852;5.676;2024-03-08T04:01:58;2.30;99.90
24468;DHT22;12634;50.852;5.676;2024-03-08T04:04:26;2.50;99.90
24468;DHT22;12634;50.852;5.676;2024-03-08T04:06:53;2.50;99.90
24468;DHT22;12634;50.852;5.676;2024-03-08T04:09:20;2.70;99.90
24468;DHT22;12634;50.852;5.676;2024-03-08T04:11:48;2.70;99.90
24468;DHT22;12634;50.852;5.676;2024-03-08T04:14:18;2.60;99.90
24468;DHT22;12634;50.852;5.676;2024-03-08T04:16:45;2.50;99.90
24468;DHT22;12634;50.852;5.676;2024-03-08T04:19:14;2.60;99.90
24468;DHT22;12634;50.852;5.676;2024-03-08T04:21:42;2.60;99.90
24468;DHT22;12634;50.852;5.676;2024-03-08T04:24:09;2.60;99.90
24468;DHT22;12634;50.852;5.676;2024-03-08T04:26:37;2.50;99.90
24468;DHT22;12634;50.852;5.676;2024-03-08T04:29:04;2.50;99.90
24468;DHT22;12634;50.852;5.676;2024-03-08T04:31:31;2.40;99.90
24468;DHT22;12634;50.852;5.676;2024-03-08T04:33:58;2.50;99.90
24468;DHT22;12634;50.852;5.676;2024-03-08T04:36:25;2.40;99.90
24468;DHT22;12634;50.852;5.676;2024-03-08T04:38:54;2.50;99.90
24468;DHT22;12634;50.852;5.676;2024-03-08T04:41:21;2.50;99.90
24468;DHT22;12634;50.852;5.676;2024-03-08T04:43:49;2.50;99.90
24468;DHT22;12634;50.852;5.676;2024-03-08T04:46:16;2.20;99.90
24468;DHT22;12634;50.852;5.676;2024-03-08T04:48:43;2.50;99.90
24468;DHT22;12634;50.852;5.676;2024-03-08T04:51:11;2.50;99.90
24468;DHT22;12634;50.852;5.676;2024-03-08T04:53:38;2.40;99.90
24468;DHT22;12634;50.852;5.676;2024-03-08T04:56:06;2.40;99.90
24468;DHT22;12634;50.852;5.676;2024-03-08T04:58:36;2.50;99.90
24468;DHT22;12634;50.852;5.676;2024-03-08T05:01:03;2.50;99.90
24468;DHT22;12634;50.852;5.676;2024-03-08T05:03:30;2.30;99.90
24468;DHT22;12634;50.852;5.676;2024-03-08T05:05:58;2.40;99.90
24468;DHT22;12634;50.852;5.676;2024-03-08T05:08:25;2.40;99.90
24468;DHT22;12634;50.852;5.676;2024-03-08T05:10:52;2.40;99.90
24468;DHT22;12634;50.852;5.676;2024-03-08T05:13:20;2.40;99.90
24468;DHT22;12634;50.852;5.676;2024-03-08T05:15:49;2.30;99.90
24468;DHT22;12634;50.852;5.676;2024-03-08T05:18:16;2.30;99.90
24468;DHT22;12634;50.852;5.676;2024-03-08T05:20:43;2.20;99.90
24468;DHT22;12634;50.852;5.676;2024-03-08T05:23:11;2.30;99.90
24468;DHT22;12634;50.852;5.676;2024-03-08T05:25:38;2.20;99.90
24468;DHT22;12634;50.852;5.676;2024-03-08T05:28:05;2.20;99.90
24468;DHT22;12634;50.852;5.676;2024-03-08T05:30:34;2.20;99.90
24468;DHT22;12634;50.852;5.676;2024-03-08T05:33:02;2.30;99.90
24468;DHT22;12634;50.852;5.676;2024-03-08T05:35:29;2.30;99.90
24468;DHT22;12634;50.852;5.676;2024-03-08T05:37:58;2.20;99.90
24468;DHT22;12634;50.852;5.676;2024-03-08T05:40:25;2.30;99.90
24468;DHT22;12634;50.852;5.676;2024-03-08T05:42:52;2.30;99.90
24468;DHT22;12634;50.852;5.676;2024-03-08T05:45:20;2.20;99.90
24468;DHT22;12634;50.852;5.676;2024-03-08T05:47:48;2.20;99.90
24468;DHT22;12634;50.852;5.676;2024-03-08T05:50:17;2.00;99.90
24468;DHT22;12634;50.852;5.676;2024-03-08T05:52:45;2.00;99.90
24468;DHT22;12634;50.852;5.676;2024-03-08T05:55:13;2.00;99.90
24468;DHT22;12634;50.852;5.676;2024-03-08T05:57:40;2.10;99.90
24468;DHT22;12634;50.852;5.676;2024-03-08T06:00:09;2.20;99.90
24468;DHT22;12634;50.852;5.676;2024-03-08T06:02:37;2.10;99.90
24468;DHT22;12634;50.852;5.676;2024-03-08T06:05:09;2.30;99.90
24468;DHT22;12634;50.852;5.676;2024-03-08T06:07:36;2.00;99.90
24468;DHT22;12634;50.852;5.676;2024-03-08T06:10:07;2.20;99.90
24468;DHT22;12634;50.852;5.676;2024-03-08T06:12:37;2.30;99.90
24468;DHT22;12634;50.852;5.676;2024-03-08T06:15:08;2.20;99.90
24468;DHT22;12634;50.852;5.676;2024-03-08T06:17:35;2.10;99.90
24468;DHT22;12634;50.852;5.676;2024-03-08T06:20:03;2.30;99.90
24468;DHT22;12634;50.852;5.676;2024-03-08T06:22:37;2.20;99.90
24468;DHT22;12634;50.852;5.676;2024-03-08T06:25:07;2.40;99.90
24468;DHT22;12634;50.852;5.676;2024-03-08T06:27:34;2.40;99.90
24468;DHT22;12634;50.852;5.676;2024-03-08T06:30:01;2.40;99.90
24468;DHT22;12634;50.852;5.676;2024-03-08T06:32:30;2.40;99.90
24468;DHT22;12634;50.852;5.676;2024-03-08T06:35:01;2.40;99.90
24468;DHT22;12634;50.852;5.676;2024-03-08T06:37:28;2.40;99.90
24468;DHT22;12634;50.852;5.676;2024-03-08T06:39:58;2.70;99.90
24468;DHT22;12634;50.852;5.676;2024-03-08T06:42:26;2.60;99.90
24468;DHT22;12634;50.852;5.676;2024-03-08T06:44:53;2.80;99.90
24468;DHT22;12634;50.852;5.676;2024-03-08T06:47:25;2.90;99.90
24468;DHT22;12634;50.852;5.676;2024-03-08T06:49:52;3.10;99.90
24468;DHT22;12634;50.852;5.676;2024-03-08T06:52:20;3.20;99.90
24468;DHT22;12634;50.852;5.676;2024-03-08T06:54:47;3.50;99.90
24468;DHT22;12634;50.852;5.676;2024-03-08T06:57:16;3.80;99.90
24468;DHT22;12634;50.852;5.676;2024-03-08T06:59:43;3.90;99.90
24468;DHT22;12634;50.852;5.676;2024-03-08T07:02:10;3.90;99.90
24468;DHT22;12634;50.852;5.676;2024-03-08T07:04:37;4.30;99.90
24468;DHT22;12634;50.852;5.676;2024-03-08T07:07:05;4.30;99.90
24468;DHT22;12634;50.852;5.676;2024-03-08T07:09:35;4.40;99.90
24468;DHT22;12634;50.852;5.676;2024-03-08T07:12:02;4.20;99.90
24468;DHT22;12634;50.852;5.676;2024-03-08T07:14:31;4.60;99.90
24468;DHT22;12634;50.852;5.676;2024-03-08T07:16:58;4.30;99.90
24468;DHT22;12634;50.852;5.676;2024-03-08T07:19:25;4.60;99.90
24468;DHT22;12634;50.852;5.676;2024-03-08T07:21:52;4.90;99.90
24468;DHT22;12634;50.852;5.676;2024-03-08T07:24:21;4.80;99.90
24468;DHT22;12634;50.852;5.676;2024-03-08T07:27:16;4.80;99.90
24468;DHT22;12634;50.852;5.676;2024-03-08T07:29:45;4.80;99.90
24468;DHT22;12634;50.852;5.676;2024-03-08T07:32:12;4.60;99.90
24468;DHT22;12634;50.852;5.676;2024-03-08T07:34:47;5.10;99.90
24468;DHT22;12634;50.852;5.676;2024-03-08T07:37:14;5.10;99.90
24468;DHT22;12634;50.852;5.676;2024-03-08T07:39:41;5.00;99.90
24468;DHT22;12634;50.852;5.676;2024-03-08T07:42:09;5.30;99.90
24468;DHT22;12634;50.852;5.676;2024-03-08T07:44:37;5.10;99.90
24468;DHT22;12634;50.852;5.676;2024-03-08T07:47:06;5.40;99.90
24468;DHT22;12634;50.852;5.676;2024-03-08T07:49:35;5.30;99.90
24468;DHT22;12634;50.852;5.676;2024-03-08T07:52:03;5.60;99.90
24468;DHT22;12634;50.852;5.676;2024-03-08T07:54:33;6.70;99.90
24468;DHT22;12634;50.852;5.676;2024-03-08T07:57:01;6.40;99.90
24468;DHT22;12634;50.852;5.676;2024-03-08T07:59:30;5.70;99.90
24468;DHT22;12634;50.852;5.676;2024-03-08T08:01:57;5.90;99.90
24468;DHT22;12634;50.852;5.676;2024-03-08T08:04:26;6.20;99.90
24468;DHT22;12634;50.852;5.676;2024-03-08T08:06:53;5.60;99.90
24468;DHT22;12634;50.852;5.676;2024-03-08T08:09:21;6.20;99.90
24468;DHT22;12634;50.852;5.676;2024-03-08T08:11:54;5.90;99.90
24468;DHT22;12634;50.852;5.676;2024-03-08T08:14:21;6.00;99.90
24468;DHT22;12634;50.852;5.676;2024-03-08T08:16:48;6.50;99.90
24468;DHT22;12634;50.852;5.676;2024-03-08T08:19:18;7.10;99.90
24468;DHT22;12634;50.852;5.676;2024-03-08T08:21:47;7.00;99.90
24468;DHT22;12634;50.852;5.676;2024-03-08T08:24:15;6.40;99.90
24468;DHT22;12634;50.852;5.676;2024-03-08T08:26:42;6.30;99.90
24468;DHT22;12634;50.852;5.676;2024-03-08T08:29:10;6.50;99.90
24468;DHT22;12634;50.852;5.676;2024-03-08T08:31:37;6.50;99.90
24468;DHT22;12634;50.852;5.676;2024-03-08T08:34:04;6.80;99.90
24468;DHT22;12634;50.852;5.676;2024-03-08T08:36:33;7.10;99.90
24468;DHT22;12634;50.852;5.676;2024-03-08T08:39:01;7.00;99.90
24468;DHT22;12634;50.852;5.676;2024-03-08T08:41:29;6.70;99.90
24468;DHT22;12634;50.852;5.676;2024-03-08T08:43:57;6.50;99.90
24468;DHT22;12634;50.852;5.676;2024-03-08T08:46:24;6.60;99.90
24468;DHT22;12634;50.852;5.676;2024-03-08T08:48:52;6.70;99.90
24468;DHT22;12634;50.852;5.676;2024-03-08T08:51:19;7.00;99.90
24468;DHT22;12634;50.852;5.676;2024-03-08T08:53:46;6.90;99.90
24468;DHT22;12634;50.852;5.676;2024-03-08T08:56:15;6.40;99.90
24468;DHT22;12634;50.852;5.676;2024-03-08T08:58:43;6.50;99.90
24468;DHT22;12634;50.852;5.676;2024-03-08T09:01:10;7.10;99.90
24468;DHT22;12634;50.852;5.676;2024-03-08T09:03:37;6.70;99.90
24468;DHT22;12634;50.852;5.676;2024-03-08T09:06:06;6.60;99.90
24468;DHT22;12634;50.852;5.676;2024-03-08T09:08:35;6.60;99.90
24468;DHT22;12634;50.852;5.676;2024-03-08T09:11:04;6.50;99.90
24468;DHT22;12634;50.852;5.676;2024-03-08T09:13:32;6.50;99.90
24468;DHT22;12634;50.852;5.676;2024-03-08T09:16:01;6.60;99.90
24468;DHT22;12634;50.852;5.676;2024-03-08T09:18:29;6.80;99.90
24468;DHT22;12634;50.852;5.676;2024-03-08T09:20:56;7.00;99.90
24468;DHT22;12634;50.852;5.676;2024-03-08T09:23:23;6.80;99.90
24468;DHT22;12634;50.852;5.676;2024-03-08T09:25:55;6.70;99.90
24468;DHT22;12634;50.852;5.676;2024-03-08T09:28:23;6.80;99.90
24468;DHT22;12634;50.852;5.676;2024-03-08T09:30:51;7.00;99.90
24468;DHT22;12634;50.852;5.676;2024-03-08T09:33:19;7.20;99.90
24468;DHT22;12634;50.852;5.676;2024-03-08T09:35:46;6.70;99.90
24468;DHT22;12634;50.852;5.676;2024-03-08T09:38:14;7.00;99.90
24468;DHT22;12634;50.852;5.676;2024-03-08T09:40:41;7.20;99.90
24468;DHT22;12634;50.852;5.676;2024-03-08T09:43:09;7.20;99.90
24468;DHT22;12634;50.852;5.676;2024-03-08T09:45:37;6.80;99.90
24468;DHT22;12634;50.852;5.676;2024-03-08T09:48:10;7.30;99.90
24468;DHT22;12634;50.852;5.676;2024-03-08T09:50:39;7.10;99.90
24468;DHT22;12634;50.852;5.676;2024-03-08T09:53:08;7.60;99.90
24468;DHT22;12634;50.852;5.676;2024-03-08T09:55:37;7.90;99.90
24468;DHT22;12634;50.852;5.676;2024-03-08T09:58:08;7.80;99.90
24468;DHT22;12634;50.852;5.676;2024-03-08T10:00:53;7.70;99.90
24468;DHT22;12634;50.852;5.676;2024-03-08T10:03:24;8.00;99.90
24468;DHT22;12634;50.852;5.676;2024-03-08T10:05:51;8.00;99.90
24468;DHT22;12634;50.852;5.676;2024-03-08T10:08:19;7.70;99.90
24468;DHT22;12634;50.852;5.676;2024-03-08T10:10:46;8.10;99.90
24468;DHT22;12634;50.852;5.676;2024-03-08T10:13:25;8.10;99.90
24468;DHT22;12634;50.852;5.676;2024-03-08T10:15:54;8.40;99.90
24468;DHT22;12634;50.852;5.676;2024-03-08T10:18:21;8.30;99.90
24468;DHT22;12634;50.852;5.676;2024-03-08T10:21:03;8.70;99.90
24468;DHT22;12634;50.852;5.676;2024-03-08T10:23:37;9.00;99.90
24468;DHT22;12634;50.852;5.676;2024-03-08T10:26:11;8.80;99.90
24468;DHT22;12634;50.852;5.676;2024-03-08T10:28:41;8.70;99.90
24468;DHT22;12634;50.852;5.676;2024-03-08T10:31:09;9.30;99.90
24468;DHT22;12634;50.852;5.676;2024-03-08T10:33:36;9.50;99.90
24468;DHT22;12634;50.852;5.676;2024-03-08T10:36:08;9.40;99.90
24468;DHT22;12634;50.852;5.676;2024-03-08T10:38:36;9.80;99.90
24468;DHT22;12634;50.852;5.676;2024-03-08T10:41:05;9.50;99.90
24468;DHT22;12634;50.852;5.676;2024-03-08T10:43:46;9.80;99.90
24468;DHT22;12634;50.852;5.676;2024-03-08T10:46:21;9.90;99.90
24468;DHT22;12634;50.852;5.676;2024-03-08T10:48:56;9.20;99.90
24468;DHT22;12634;50.852;5.676;2024-03-08T10:51:27;9.90;99.90
24468;DHT22;12634;50.852;5.676;2024-03-08T10:53:57;10.10;99.90
24468;DHT22;12634;50.852;5.676;2024-03-08T10:56:25;9.40;99.90
24468;DHT22;12634;50.852;5.676;2024-03-08T10:58:54;9.60;99.90
24468;DHT22;12634;50.852;5.676;2024-03-08T11:01:21;9.80;99.90
24468;DHT22;12634;50.852;5.676;2024-03-08T11:03:50;9.40;99.90
24468;DHT22;12634;50.852;5.676;2024-03-08T11:06:22;10.10;99.90
24468;DHT22;12634;50.852;5.676;2024-03-08T11:08:51;10.40;99.90
24468;DHT22;12634;50.852;5.676;2024-03-08T11:11:25;9.80;99.90
24468;DHT22;12634;50.852;5.676;2024-03-08T11:14:02;9.80;99.90
24468;DHT22;12634;50.852;5.676;2024-03-08T11:16:39;10.60;99.90
24468;DHT22;12634;50.852;5.676;2024-03-08T11:19:26;10.90;99.90
24468;DHT22;12634;50.852;5.676;2024-03-08T11:22:01;10.90;99.90
24468;DHT22;12634;50.852;5.676;2024-03-08T11:24:37;10.90;99.90
24468;DHT22;12634;50.852;5.676;2024-03-08T11:27:05;10.60;99.90
24468;DHT22;12634;50.852;5.676;2024-03-08T11:29:38;11.00;99.90
24468;DHT22;12634;50.852;5.676;2024-03-08T11:32:10;11.20;99.90
24468;DHT22;12634;50.852;5.676;2024-03-08T11:34:39;11.50;99.90
24468;DHT22;12634;50.852;5.676;2024-03-08T11:37:13;11.30;99.90
24468;DHT22;12634;50.852;5.676;2024-03-08T11:39:46;11.00;99.90
24468;DHT22;12634;50.852;5.676;2024-03-08T11:42:15;11.00;99.90
24468;DHT22;12634;50.852;5.676;2024-03-08T11:44:43;11.90;99.90
24468;DHT22;12634;50.852;5.676;2024-03-08T11:47:10;11.60;99.90
24468;DHT22;12634;50.852;5.676;2024-03-08T11:49:38;11.70;99.90
24468;DHT22;12634;50.852;5.676;2024-03-08T11:52:10;12.30;99.90
24468;DHT22;12634;50.852;5.676;2024-03-08T11:54:39;12.80;99.90
24468;DHT22;12634;50.852;5.676;2024-03-08T11:57:08;12.30;99.90
24468;DHT22;12634;50.852;5.676;2024-03-08T11:59:36;12.00;99.90
24468;DHT22;12634;50.852;5.676;2024-03-08T12:02:04;12.10;99.90
24468;DHT22;12634;50.852;5.676;2024-03-08T12:04:32;12.40;99.90
24468;DHT22;12634;50.852;5.676;2024-03-08T12:07:02;12.50;99.90
24468;DHT22;12634;50.852;5.676;2024-03-08T12:09:34;12.20;99.90
24468;DHT22;12634;50.852;5.676;2024-03-08T12:12:03;12.30;99.90
24468;DHT22;12634;50.852;5.676;2024-03-08T12:14:36;12.30;99.90
24468;DHT22;12634;50.852;5.676;2024-03-08T12:17:04;12.40;99.90
24468;DHT22;12634;50.852;5.676;2024-03-08T12:19:31;12.50;99.90
24468;DHT22;12634;50.852;5.676;2024-03-08T12:22:08;12.50;99.90
24468;DHT22;12634;50.852;5.676;2024-03-08T12:24:37;12.90;99.90
24468;DHT22;12634;50.852;5.676;2024-03-08T12:27:18;12.50;99.90
24468;DHT22;12634;50.852;5.676;2024-03-08T12:29:47;13.40;99.90
24468;DHT22;12634;50.852;5.676;2024-03-08T12:32:15;12.70;99.90
24468;DHT22;12634;50.852;5.676;2024-03-08T12:34:43;12.40;99.90
24468;DHT22;12634;50.852;5.676;2024-03-08T12:37:11;12.40;99.90
24468;DHT22;12634;50.852;5.676;2024-03-08T12:39:41;13.00;99.90
24468;DHT22;12634;50.852;5.676;2024-03-08T12:42:08;12.80;99.90
24468;DHT22;12634;50.852;5.676;2024-03-08T12:44:35;12.90;99.90
24468;DHT22;12634;50.852;5.676;2024-03-08T12:47:07;12.70;99.90
24468;DHT22;12634;50.852;5.676;2024-03-08T12:49:35;12.30;99.90
24468;DHT22;12634;50.852;5.676;2024-03-08T12:52:02;13.00;99.90
24468;DHT22;12634;50.852;5.676;2024-03-08T12:54:29;12.30;99.90
24468;DHT22;12634;50.852;5.676;2024-03-08T12:56:57;12.90;99.90
24468;DHT22;12634;50.852;5.676;2024-03-08T12:59:24;12.60;99.90
24468;DHT22;12634;50.852;5.676;2024-03-08T13:01:52;12.80;99.90
24468;DHT22;12634;50.852;5.676;2024-03-08T13:04:21;12.60;99.90
24468;DHT22;12634;50.852;5.676;2024-03-08T13:06:48;12.80;99.90
24468;DHT22;12634;50.852;5.676;2024-03-08T13:09:15;12.80;99.90
24468;DHT22;12634;50.852;5.676;2024-03-08T13:11:45;12.80;99.90
24468;DHT22;12634;50.852;5.676;2024-03-08T13:14:12;12.50;99.90
24468;DHT22;12634;50.852;5.676;2024-03-08T13:16:39;13.00;99.90
24468;DHT22;12634;50.852;5.676;2024-03-08T13:19:07;12.70;99.90
24468;DHT22;12634;50.852;5.676;2024-03-08T13:21:36;12.70;99.90
24468;DHT22;12634;50.852;5.676;2024-03-08T13:24:04;13.10;99.90
24468;DHT22;12634;50.852;5.676;2024-03-08T13:26:33;13.70;99.90
24468;DHT22;12634;50.852;5.676;2024-03-08T13:29:00;13.30;99.90
24468;DHT22;12634;50.852;5.676;2024-03-08T13:31:27;12.70;99.90
24468;DHT22;12634;50.852;5.676;2024-03-08T13:33:55;13.10;99.90
24468;DHT22;12634;50.852;5.676;2024-03-08T13:36:24;12.50;99.90
24468;DHT22;12634;50.852;5.676;2024-03-08T13:38:56;12.80;99.90
24468;DHT22;12634;50.852;5.676;2024-03-08T13:41:24;13.10;99.90
24468;DHT22;12634;50.852;5.676;2024-03-08T13:43:52;12.60;99.90
24468;DHT22;12634;50.852;5.676;2024-03-08T13:46:21;12.70;99.90
24468;DHT22;12634;50.852;5.676;2024-03-08T13:48:50;12.90;99.90
24468;DHT22;12634;50.852;5.676;2024-03-08T13:51:17;13.00;99.90
24468;DHT22;12634;50.852;5.676;2024-03-08T13:53:45;13.10;99.90
24468;DHT22;12634;50.852;5.676;2024-03-08T13:56:14;12.70;99.90
24468;DHT22;12634;50.852;5.676;2024-03-08T13:58:41;12.60;99.90
24468;DHT22;12634;50.852;5.676;2024-03-08T14:01:09;12.70;99.90
24468;DHT22;12634;50.852;5.676;2024-03-08T14:03:37;12.80;99.90
24468;DHT22;12634;50.852;5.676;2024-03-08T14:06:07;12.90;99.90
24468;DHT22;12634;50.852;5.676;2024-03-08T14:08:35;13.00;99.90
24468;DHT22;12634;50.852;5.676;2024-03-08T14:11:03;12.70;99.90
24468;DHT22;12634;50.852;5.676;2024-03-08T14:13:42;12.60;99.90
24468;DHT22;12634;50.852;5.676;2024-03-08T14:16:11;13.10;99.90
24468;DHT22;12634;50.852;5.676;2024-03-08T14:18:38;13.20;99.90
24468;DHT22;12634;50.852;5.676;2024-03-08T14:21:06;13.40;99.90
24468;DHT22;12634;50.852;5.676;2024-03-08T14:23:34;12.60;99.90
24468;DHT22;12634;50.852;5.676;2024-03-08T14:26:02;12.60;99.90
24468;DHT22;12634;50.852;5.676;2024-03-08T14:28:30;12.80;99.90
24468;DHT22;12634;50.852;5.676;2024-03-08T14:30:59;12.70;99.90
24468;DHT22;12634;50.852;5.676;2024-03-08T14:33:29;12.60;99.90
24468;DHT22;12634;50.852;5.676;2024-03-08T14:35:57;13.00;99.90
24468;DHT22;12634;50.852;5.676;2024-03-08T14:38:24;13.30;99.90
24468;DHT22;12634;50.852;5.676;2024-03-08T14:40:53;12.70;99.90
24468;DHT22;12634;50.852;5.676;2024-03-08T14:43:21;12.80;99.90
24468;DHT22;12634;50.852;5.676;2024-03-08T14:45:52;12.70;99.90
24468;DHT22;12634;50.852;5.676;2024-03-08T14:48:21;12.70;99.90
24468;DHT22;12634;50.852;5.676;2024-03-08T14:50:48;13.10;99.90
24468;DHT22;12634;50.852;5.676;2024-03-08T14:53:16;13.00;99.90
24468;DHT22;12634;50.852;5.676;2024-03-08T14:55:44;12.70;99.90
24468;DHT22;12634;50.852;5.676;2024-03-08T14:58:12;12.60;99.90
24468;DHT22;12634;50.852;5.676;2024-03-08T15:00:40;12.60;99.90
24468;DHT22;12634;50.852;5.676;2024-03-08T15:03:07;12.80;99.90
24468;DHT22;12634;50.852;5.676;2024-03-08T15:05:40;12.70;99.90
24468;DHT22;12634;50.852;5.676;2024-03-08T15:08:13;12.80;99.90
24468;DHT22;12634;50.852;5.676;2024-03-08T15:10:45;13.00;99.90
24468;DHT22;12634;50.852;5.676;2024-03-08T15:13:13;13.30;99.90
24468;DHT22;12634;50.852;5.676;2024-03-08T15:15:46;12.90;99.90
24468;DHT22;12634;50.852;5.676;2024-03-08T15:18:21;13.30;99.90
24468;DHT22;12634;50.852;5.676;2024-03-08T15:20:55;12.80;99.90
24468;DHT22;12634;50.852;5.676;2024-03-08T15:23:23;12.90;99.90
24468;DHT22;12634;50.852;5.676;2024-03-08T15:25:50;12.90;99.90
24468;DHT22;12634;50.852;5.676;2024-03-08T15:28:17;12.80;99.90
24468;DHT22;12634;50.852;5.676;2024-03-08T15:30:46;12.80;99.90
24468;DHT22;12634;50.852;5.676;2024-03-08T15:33:19;12.80;99.90
24468;DHT22;12634;50.852;5.676;2024-03-08T15:35:50;12.90;99.90
24468;DHT22;12634;50.852;5.676;2024-03-08T15:38:25;12.90;99.90
24468;DHT22;12634;50.852;5.676;2024-03-08T15:40:53;12.90;99.90
24468;DHT22;12634;50.852;5.676;2024-03-08T15:43:20;12.80;99.90
24468;DHT22;12634;50.852;5.676;2024-03-08T15:45:48;12.70;99.90
24468;DHT22;12634;50.852;5.676;2024-03-08T15:48:16;12.60;99.90
24468;DHT22;12634;50.852;5.676;2024-03-08T15:50:43;12.60;99.90